Allenton, Michigan
Current Conditions -  °F | °C
As of 2:13 PM on Friday 21 Nov 2014 (Local Time) from KD95 Reporting Station
Clear Clear  
Wind Chill: 15°   Ceiling: Unl
Heat Index: 24°   Visibility: 10mi
Dew Point: 10°   Wind: 8mph
Humidity: 54%   Direction: 250°WSW
Pressure: 30.41"   Gusts: NA
Location:  42.92°N, 82.95°W
Report Text: KD95 211913Z AUTO 25007KT 10SM CLR M04/M12 A3041 RMK AO2 T10451125
Loading
Personal Weather Stations






























Interactive Weather Map New forecast layout! Learn more

10-Day Weather Forecast

Advertisements
Track Severe Weather on mobile